^^
Station Historical Data
Daily Summary for February 13, 2018 Units:  Both    English   Metric
« Previous Day
Next Day »
Daily Weekly Monthly Yearly Custom
  High: Low: Average:
Temperature: TemperatureF °F /  -17.8 °C 64.2 °F /  17.9 °C 71.7 °F /  22.1 °C
Dew Point: DewpointF °F /  -17.8 °C 54.0 °F /  12.2 °C 58.8 °F /  14.9 °C
Humidity: Humidity% 39% 65%
Wind Speed: WindSpeedMPHmph /  0km/h - 1.7mph /  2.7km/h
Wind Gust: WindSpeedGustMPHmph /  0km/h - -
Wind- - ESE
Pressure: PressureIn in /  0 hPa 29.78 in /  1008.4 hPa -
Precipitation: 0.00 in /  0 mm    
Historical Graphs
 
 
Tabular Data for February 13, 2018
Time Temperature Dew Point Pressure Wind Wind Speed Wind Gust Humidity Rainfall Rate (Hourly) solar Conditions
TemperatureF °F /  -17.8 °C DewpointF °F /  -17.8 °C PressureInin /  0hPa Calm     Humidity% HourlyPrecipInin /  0mm SolarRadiationWatts/m^2 W/m2 Conditions
00:04 64.2 °F /  17.9 °C 60.3 °F /  15.7 °C 29.85in /  1010.7hPa Calm   3.0mph /  4.8km/h 87% 0.00in /  0mm 0.0 W/m2
00:10 64.2 °F /  17.9 °C 60.6 °F /  15.9 °C 29.84in /  1010.4hPa North 0.9mph /  1.4km/h 2.0mph /  3.2km/h 88% 0.00in /  0mm 0.0 W/m2
00:15 64.2 °F /  17.9 °C 60.6 °F /  15.9 °C 29.84in /  1010.4hPa Calm   1.0mph /  1.6km/h 88% 0.00in /  0mm 0.0 W/m2
00:20 64.2 °F /  17.9 °C 60.3 °F /  15.7 °C 29.84in /  1010.4hPa Calm   1.0mph /  1.6km/h 87% 0.00in /  0mm 0.0 W/m2
00:25 64.2 °F /  17.9 °C 60.6 °F /  15.9 °C 29.84in /  1010.4hPa ESE 0.9mph /  1.4km/h 2.0mph /  3.2km/h 88% 0.00in /  0mm 0.0 W/m2
00:30 64.2 °F /  17.9 °C 60.6 °F /  15.9 °C 29.83in /  1010hPa ESE 2.0mph /  3.2km/h 3.0mph /  4.8km/h 88% 0.00in /  0mm 0.0 W/m2
00:35 64.2 °F /  17.9 °C 60.6 °F /  15.9 °C 29.83in /  1010hPa ESE 0.9mph /  1.4km/h 1.0mph /  1.6km/h 88% 0.00in /  0mm 0.0 W/m2
00:40 64.2 °F /  17.9 °C 60.6 °F /  15.9 °C 29.83in /  1010hPa Calm     88% 0.00in /  0mm 0.0 W/m2
00:45 64.2 °F /  17.9 °C 60.6 °F /  15.9 °C 29.83in /  1010hPa Calm   1.0mph /  1.6km/h 88% 0.00in /  0mm 0.0 W/m2
00:50 64.2 °F /  17.9 °C 60.6 °F /  15.9 °C 29.83in /  1010hPa Calm     88% 0.00in /  0mm 0.0 W/m2
00:56 64.2 °F /  17.9 °C 61.0 °F /  16.1 °C 29.83in /  1010hPa Calm     89% 0.00in /  0mm 0.0 W/m2
01:01 64.4 °F /  18 °C 60.8 °F /  16 °C 29.83in /  1010hPa Calm     88% 0.00in /  0mm 0.0 W/m2
01:06 64.6 °F /  18.1 °C 61.0 °F /  16.1 °C 29.82in /  1009.7hPa ESE 1.0mph /  1.6km/h 1.0mph /  1.6km/h 88% 0.00in /  0mm 0.0 W/m2
01:11 64.6 °F /  18.1 °C 60.6 °F /  15.9 °C 29.82in /  1009.7hPa Calm   2.0mph /  3.2km/h 87% 0.00in /  0mm 0.0 W/m2
01:16 64.6 °F /  18.1 °C 60.6 °F /  15.9 °C 29.82in /  1009.7hPa Calm     87% 0.00in /  0mm 0.0 W/m2
01:21 64.6 °F /  18.1 °C 60.6 °F /  15.9 °C 29.82in /  1009.7hPa Calm     87% 0.00in /  0mm 0.0 W/m2
01:26 64.6 °F /  18.1 °C 60.6 °F /  15.9 °C 29.82in /  1009.7hPa Calm     87% 0.00in /  0mm 0.0 W/m2
01:31 64.6 °F /  18.1 °C 60.6 °F /  15.9 °C 29.82in /  1009.7hPa Calm   1.0mph /  1.6km/h 87% 0.00in /  0mm 0.0 W/m2
01:36 64.6 °F /  18.1 °C 60.6 °F /  15.9 °C 29.81in /  1009.4hPa Calm     87% 0.00in /  0mm 0.0 W/m2
01:42 64.6 °F /  18.1 °C 60.6 °F /  15.9 °C 29.80in /  1009hPa Calm   1.0mph /  1.6km/h 87% 0.00in /  0mm 0.0 W/m2
01:47 64.6 °F /  18.1 °C 60.6 °F /  15.9 °C 29.80in /  1009hPa Calm     87% 0.00in /  0mm 0.0 W/m2
01:52 64.6 °F /  18.1 °C 60.6 °F /  15.9 °C 29.80in /  1009hPa SSE 2.0mph /  3.2km/h 4.0mph /  6.4km/h 87% 0.00in /  0mm 0.0 W/m2
01:57 64.8 °F /  18.2 °C 61.2 °F /  16.2 °C 29.80in /  1009hPa Calm   5.0mph /  8km/h 88% 0.00in /  0mm 0.0 W/m2
02:02 64.9 °F /  18.3 °C 61.3 °F /  16.3 °C 29.80in /  1009hPa Calm   3.0mph /  4.8km/h 88% 0.00in /  0mm 0.0 W/m2
02:07 64.9 °F /  18.3 °C 61.3 °F /  16.3 °C 29.79in /  1008.7hPa SE 2.9mph /  4.7km/h 5.0mph /  8km/h 88% 0.00in /  0mm 0.0 W/m2
02:12 64.8 °F /  18.2 °C 60.8 °F /  16 °C 29.78in /  1008.4hPa SE 4.0mph /  6.4km/h 5.0mph /  8km/h 87% 0.00in /  0mm 0.0 W/m2
02:18 64.8 °F /  18.2 °C 60.8 °F /  16 °C 29.78in /  1008.4hPa Calm   4.0mph /  6.4km/h 87% 0.00in /  0mm 0.0 W/m2
02:23 64.8 °F /  18.2 °C 60.8 °F /  16 °C 29.78in /  1008.4hPa Calm   1.0mph /  1.6km/h 87% 0.00in /  0mm 0.0 W/m2
02:29 64.9 °F /  18.3 °C 60.3 °F /  15.7 °C 29.78in /  1008.4hPa SSE 0.9mph /  1.4km/h 5.0mph /  8km/h 85% 0.00in /  0mm 0.0 W/m2
02:34 64.9 °F /  18.3 °C 60.3 °F /  15.7 °C 29.78in /  1008.4hPa Calm   2.0mph /  3.2km/h 85% 0.00in /  0mm 0.0 W/m2
02:39 64.9 °F /  18.3 °C 60.3 °F /  15.7 °C 29.78in /  1008.4hPa Calm   1.0mph /  1.6km/h 85% 0.00in /  0mm 0.0 W/m2
02:44 65.1 °F /  18.4 °C 60.1 °F /  15.6 °C 29.78in /  1008.4hPa Calm   3.0mph /  4.8km/h 84% 0.00in /  0mm 0.0 W/m2
02:49 65.1 °F /  18.4 °C 60.4 °F /  15.8 °C 29.78in /  1008.4hPa ENE 0.9mph /  1.4km/h 4.0mph /  6.4km/h 85% 0.00in /  0mm 0.0 W/m2
02:54 65.1 °F /  18.4 °C 60.1 °F /  15.6 °C 29.78in /  1008.4hPa East 0.9mph /  1.4km/h 5.0mph /  8km/h 84% 0.00in /  0mm 0.0 W/m2
02:59 65.3 °F /  18.5 °C 60.3 °F /  15.7 °C 29.78in /  1008.4hPa ESE 2.0mph /  3.2km/h 4.0mph /  6.4km/h 84% 0.00in /  0mm 0.0 W/m2
03:04 65.3 °F /  18.5 °C 60.1 °F /  15.6 °C 29.78in /  1008.4hPa Calm   3.0mph /  4.8km/h 83% 0.00in /  0mm 0.0 W/m2
03:09 65.5 °F /  18.6 °C 60.3 °F /  15.7 °C 29.78in /  1008.4hPa Calm   4.0mph /  6.4km/h 83% 0.00in /  0mm 0.0 W/m2
03:15 65.5 °F /  18.6 °C 60.3 °F /  15.7 °C 29.78in /  1008.4hPa Calm   2.0mph /  3.2km/h 83% 0.00in /  0mm 0.0 W/m2
03:20 65.7 °F /  18.7 °C 60.6 °F /  15.9 °C 29.78in /  1008.4hPa East 4.0mph /  6.4km/h 4.0mph /  6.4km/h 84% 0.00in /  0mm 0.0 W/m2
03:25 65.7 °F /  18.7 °C 60.6 °F /  15.9 °C 29.78in /  1008.4hPa NE 2.9mph /  4.7km/h 5.0mph /  8km/h 84% 0.00in /  0mm 0.0 W/m2
03:30 65.8 °F /  18.8 °C 60.8 °F /  16 °C 29.78in /  1008.4hPa NNE 2.9mph /  4.7km/h 6.0mph /  9.7km/h 84% 0.00in /  0mm 0.0 W/m2
03:35 65.8 °F /  18.8 °C 60.8 °F /  16 °C 29.78in /  1008.4hPa ENE 2.0mph /  3.2km/h 3.0mph /  4.8km/h 84% 0.00in /  0mm 0.0 W/m2
03:40 65.8 °F /  18.8 °C 60.8 °F /  16 °C 29.78in /  1008.4hPa ESE 2.0mph /  3.2km/h 3.0mph /  4.8km/h 84% 0.00in /  0mm 0.0 W/m2
03:45 65.8 °F /  18.8 °C 60.6 °F /  15.9 °C 29.78in /  1008.4hPa SE 0.9mph /  1.4km/h 3.0mph /  4.8km/h 83% 0.00in /  0mm 0.0 W/m2
03:50 65.8 °F /  18.8 °C 60.3 °F /  15.7 °C 29.78in /  1008.4hPa Calm   3.0mph /  4.8km/h 82% 0.00in /  0mm 0.0 W/m2
03:55 65.8 °F /  18.8 °C 60.3 °F /  15.7 °C 29.78in /  1008.4hPa Calm   1.0mph /  1.6km/h 82% 0.00in /  0mm 0.0 W/m2
04:01 65.8 °F /  18.8 °C 59.9 °F /  15.5 °C 29.78in /  1008.4hPa Calm   1.0mph /  1.6km/h 81% 0.00in /  0mm 0.0 W/m2
04:06 65.8 °F /  18.8 °C 58.5 °F /  14.7 °C 29.78in /  1008.4hPa SSE 4.9mph /  7.9km/h 5.0mph /  8km/h 77% 0.00in /  0mm 0.0 W/m2
04:11 66.0 °F /  18.9 °C 57.2 °F /  14 °C 29.78in /  1008.4hPa SSE 0.9mph /  1.4km/h 4.0mph /  6.4km/h 73% 0.00in /  0mm 0.0 W/m2
04:16 66.6 °F /  19.2 °C 56.8 °F /  13.8 °C 29.78in /  1008.4hPa ESE 2.9mph /  4.7km/h 3.0mph /  4.8km/h 71% 0.00in /  0mm 0.0 W/m2
04:21 66.9 °F /  19.4 °C 55.9 °F /  13.3 °C 29.78in /  1008.4hPa SE 0.9mph /  1.4km/h 5.0mph /  8km/h 68% 0.00in /  0mm 0.0 W/m2
04:26 67.3 °F /  19.6 °C 56.3 °F /  13.5 °C 29.78in /  1008.4hPa Calm   2.0mph /  3.2km/h 68% 0.00in /  0mm 0.0 W/m2
04:31 67.5 °F /  19.7 °C 56.1 °F /  13.4 °C 29.79in /  1008.7hPa Calm   1.0mph /  1.6km/h 67% 0.00in /  0mm 0.0 W/m2
04:36 67.5 °F /  19.7 °C 56.1 °F /  13.4 °C 29.79in /  1008.7hPa Calm   2.0mph /  3.2km/h 67% 0.00in /  0mm 0.0 W/m2
04:41 67.5 °F /  19.7 °C 56.1 °F /  13.4 °C 29.79in /  1008.7hPa Calm   2.0mph /  3.2km/h 67% 0.00in /  0mm 0.0 W/m2
04:47 67.5 °F /  19.7 °C 56.1 °F /  13.4 °C 29.79in /  1008.7hPa Calm     67% 0.00in /  0mm 0.0 W/m2
04:52 67.5 °F /  19.7 °C 56.5 °F /  13.6 °C 29.79in /  1008.7hPa Calm   2.0mph /  3.2km/h 68% 0.00in /  0mm 0.0 W/m2
04:57 67.5 °F /  19.7 °C 55.8 °F /  13.2 °C 29.79in /  1008.7hPa SE 0.9mph /  1.4km/h 1.0mph /  1.6km/h 66% 0.00in /  0mm 0.0 W/m2
05:03 67.5 °F /  19.7 °C 54.5 °F /  12.5 °C 29.79in /  1008.7hPa SSE 0.9mph /  1.4km/h 2.0mph /  3.2km/h 63% 0.00in /  0mm 0.0 W/m2
05:08 67.6 °F /  19.8 °C 54.7 °F /  12.6 °C 29.80in /  1009hPa SE 0.9mph /  1.4km/h 5.0mph /  8km/h 63% 0.00in /  0mm 0.0 W/m2
05:14 68.0 °F /  20 °C 54.0 °F /  12.2 °C 29.80in /  1009hPa SE 4.9mph /  7.9km/h 8.0mph /  12.9km/h 61% 0.00in /  0mm 0.0 W/m2
05:19 68.4 °F /  20.2 °C 54.3 °F /  12.4 °C 29.80in /  1009hPa SSE 0.9mph /  1.4km/h 4.0mph /  6.4km/h 61% 0.00in /  0mm 0.0 W/m2
05:24 68.5 °F /  20.3 °C 54.1 °F /  12.3 °C 29.80in /  1009hPa SE 2.9mph /  4.7km/h 5.0mph /  8km/h 60% 0.00in /  0mm 0.0 W/m2
05:29 68.9 °F /  20.5 °C 54.0 °F /  12.2 °C 29.80in /  1009hPa SSE 2.0mph /  3.2km/h 6.0mph /  9.7km/h 59% 0.00in /  0mm 0.0 W/m2
05:34 69.3 °F /  20.7 °C 54.9 °F /  12.7 °C 29.80in /  1009hPa Calm   7.0mph /  11.3km/h 60% 0.00in /  0mm 0.0 W/m2
05:39 69.3 °F /  20.7 °C 55.2 °F /  12.9 °C 29.80in /  1009hPa Calm   1.0mph /  1.6km/h 61% 0.00in /  0mm 0.0 W/m2
05:45 69.3 °F /  20.7 °C 54.9 °F /  12.7 °C 29.80in /  1009hPa Calm   1.0mph /  1.6km/h 60% 0.00in /  0mm 0.0 W/m2
05:50 69.3 °F /  20.7 °C 55.8 °F /  13.2 °C 29.81in /  1009.4hPa Calm     62% 0.00in /  0mm 0.0 W/m2
05:55 69.1 °F /  20.6 °C 55.9 °F /  13.3 °C 29.81in /  1009.4hPa Calm   2.0mph /  3.2km/h 63% 0.00in /  0mm 0.0 W/m2
06:01 68.9 °F /  20.5 °C 55.8 °F /  13.2 °C 29.81in /  1009.4hPa Calm     63% 0.00in /  0mm 0.0 W/m2
06:07 68.7 °F /  20.4 °C 56.1 °F /  13.4 °C 29.81in /  1009.4hPa Calm     64% 0.00in /  0mm 0.0 W/m2
06:12 68.5 °F /  20.3 °C 56.3 °F /  13.5 °C 29.81in /  1009.4hPa Calm     65% 0.00in /  0mm 0.0 W/m2
06:18 68.2 °F /  20.1 °C 56.8 °F /  13.8 °C 29.81in /  1009.4hPa Calm   1.0mph /  1.6km/h 67% 0.00in /  0mm 0.0 W/m2
06:23 67.8 °F /  19.9 °C 56.5 °F /  13.6 °C 29.81in /  1009.4hPa Calm   1.0mph /  1.6km/h 67% 0.00in /  0mm 0.0 W/m2
06:28 67.6 °F /  19.8 °C 56.7 °F /  13.7 °C 29.81in /  1009.4hPa NE 0.9mph /  1.4km/h 2.0mph /  3.2km/h 68% 0.00in /  0mm 0.0 W/m2
06:34 67.5 °F /  19.7 °C 57.0 °F /  13.9 °C 29.82in /  1009.7hPa Calm     69% 0.00in /  0mm 0.0 W/m2
06:39 67.3 °F /  19.6 °C 57.2 °F /  14 °C 29.82in /  1009.7hPa Calm   4.0mph /  6.4km/h 70% 0.00in /  0mm 0.0 W/m2
06:44 66.9 °F /  19.4 °C 57.2 °F /  14 °C 29.82in /  1009.7hPa East 0.9mph /  1.4km/h 2.0mph /  3.2km/h 71% 0.00in /  0mm 0.0 W/m2
06:50 66.7 °F /  19.3 °C 57.7 °F /  14.3 °C 29.82in /  1009.7hPa Calm   3.0mph /  4.8km/h 73% 0.00in /  0mm 5.0 W/m2
06:55 66.6 °F /  19.2 °C 57.6 °F /  14.2 °C 29.82in /  1009.7hPa Calm   1.0mph /  1.6km/h 73% 0.00in /  0mm 9.0 W/m2
07:00 66.6 °F /  19.2 °C 57.6 °F /  14.2 °C 29.82in /  1009.7hPa Calm     73% 0.00in /  0mm 14.0 W/m2
07:05 66.4 °F /  19.1 °C 57.9 °F /  14.4 °C 29.82in /  1009.7hPa Calm   2.0mph /  3.2km/h 74% 0.00in /  0mm 19.0 W/m2
07:10 66.4 °F /  19.1 °C 57.9 °F /  14.4 °C 29.82in /  1009.7hPa Calm   1.0mph /  1.6km/h 74% 0.00in /  0mm 25.0 W/m2
07:15 66.4 °F /  19.1 °C 57.4 °F /  14.1 °C 29.83in /  1010hPa Calm   2.0mph /  3.2km/h 73% 0.00in /  0mm 28.0 W/m2
07:20 66.4 °F /  19.1 °C 57.9 °F /  14.4 °C 29.83in /  1010hPa Calm   1.0mph /  1.6km/h 74% 0.00in /  0mm 33.0 W/m2
07:25 66.6 °F /  19.2 °C 58.5 °F /  14.7 °C 29.83in /  1010hPa Calm   2.0mph /  3.2km/h 75% 0.00in /  0mm 42.0 W/m2
07:31 66.6 °F /  19.2 °C 57.6 °F /  14.2 °C 29.83in /  1010hPa Calm   1.0mph /  1.6km/h 73% 0.00in /  0mm 56.0 W/m2
07:36 66.7 °F /  19.3 °C 57.7 °F /  14.3 °C 29.83in /  1010hPa Calm   2.0mph /  3.2km/h 73% 0.00in /  0mm 70.0 W/m2
07:41 66.9 °F /  19.4 °C 58.3 °F /  14.6 °C 29.83in /  1010hPa NE 2.9mph /  4.7km/h 3.0mph /  4.8km/h 74% 0.00in /  0mm 83.0 W/m2
07:46 66.9 °F /  19.4 °C 57.9 °F /  14.4 °C 29.83in /  1010hPa NE 0.9mph /  1.4km/h 5.0mph /  8km/h 73% 0.00in /  0mm 83.0 W/m2
07:51 66.9 °F /  19.4 °C 57.6 °F /  14.2 °C 29.83in /  1010hPa ESE 4.9mph /  7.9km/h 8.0mph /  12.9km/h 72% 0.00in /  0mm 69.0 W/m2
07:57 66.9 °F /  19.4 °C 58.3 °F /  14.6 °C 29.83in /  1010hPa NE 2.0mph /  3.2km/h 6.0mph /  9.7km/h 74% 0.00in /  0mm 74.0 W/m2
08:02 66.9 °F /  19.4 °C 58.8 °F /  14.9 °C 29.83in /  1010hPa East 2.9mph /  4.7km/h 6.0mph /  9.7km/h 75% 0.00in /  0mm 83.0 W/m2
08:07 66.7 °F /  19.3 °C 58.6 °F /  14.8 °C 29.83in /  1010hPa NE 2.0mph /  3.2km/h 4.0mph /  6.4km/h 75% 0.00in /  0mm 83.0 W/m2
08:13 66.7 °F /  19.3 °C 59.0 °F /  15 °C 29.83in /  1010hPa Calm   7.0mph /  11.3km/h 76% 0.00in /  0mm 60.0 W/m2
08:18 66.6 °F /  19.2 °C 58.8 °F /  14.9 °C 29.83in /  1010hPa ESE 2.0mph /  3.2km/h 3.0mph /  4.8km/h 76% 0.00in /  0mm 62.0 W/m2
08:23 66.6 °F /  19.2 °C 58.5 °F /  14.7 °C 29.83in /  1010hPa NNE 4.9mph /  7.9km/h 6.0mph /  9.7km/h 75% 0.00in /  0mm 69.0 W/m2
08:29 66.7 °F /  19.3 °C 58.6 °F /  14.8 °C 29.83in /  1010hPa NE 4.9mph /  7.9km/h 6.0mph /  9.7km/h 75% 0.00in /  0mm 84.0 W/m2
08:34 66.7 °F /  19.3 °C 58.6 °F /  14.8 °C 29.84in /  1010.4hPa ENE 6.9mph /  11.1km/h 7.0mph /  11.3km/h 75% 0.00in /  0mm 118.0 W/m2
08:40 66.7 °F /  19.3 °C 58.6 °F /  14.8 °C 29.83in /  1010hPa ESE 2.0mph /  3.2km/h 6.0mph /  9.7km/h 75% 0.00in /  0mm 135.0 W/m2
08:45 66.9 °F /  19.4 °C 58.8 °F /  14.9 °C 29.83in /  1010hPa NE 0.9mph /  1.4km/h 5.0mph /  8km/h 75% 0.00in /  0mm 163.0 W/m2
08:50 67.3 °F /  19.6 °C 59.0 °F /  15 °C 29.84in /  1010.4hPa NE 4.0mph /  6.4km/h 4.0mph /  6.4km/h 75% 0.00in /  0mm 192.0 W/m2
08:55 67.6 °F /  19.8 °C 59.0 °F /  15 °C 29.84in /  1010.4hPa Calm   3.0mph /  4.8km/h 74% 0.00in /  0mm 202.0 W/m2
09:01 68.2 °F /  20.1 °C 59.2 °F /  15.1 °C 29.83in /  1010hPa Calm   4.0mph /  6.4km/h 73% 0.00in /  0mm 684.0 W/m2
09:06 69.1 °F /  20.6 °C 59.4 °F /  15.2 °C 29.83in /  1010hPa Calm   4.0mph /  6.4km/h 71% 0.00in /  0mm 635.0 W/m2
09:11 70.2 °F /  21.2 °C 59.9 °F /  15.5 °C 29.83in /  1010hPa East 0.9mph /  1.4km/h 1.0mph /  1.6km/h 70% 0.00in /  0mm 629.0 W/m2
09:17 71.8 °F /  22.1 °C 59.7 °F /  15.4 °C 29.83in /  1010hPa East 4.9mph /  7.9km/h 8.0mph /  12.9km/h 66% 0.00in /  0mm 833.0 W/m2
09:22 73.0 °F /  22.8 °C 59.7 °F /  15.4 °C 29.84in /  1010.4hPa ENE 2.0mph /  3.2km/h 5.0mph /  8km/h 63% 0.00in /  0mm 830.0 W/m2
09:27 74.3 °F /  23.5 °C 59.0 °F /  15 °C 29.84in /  1010.4hPa Calm   10.0mph /  16.1km/h 59% 0.00in /  0mm 756.0 W/m2
09:32 75.4 °F /  24.1 °C 59.0 °F /  15 °C 29.84in /  1010.4hPa NE 2.9mph /  4.7km/h 10.0mph /  16.1km/h 57% 0.00in /  0mm 854.0 W/m2
09:38 76.3 °F /  24.6 °C 59.9 °F /  15.5 °C 29.84in /  1010.4hPa ENE 6.0mph /  9.7km/h 9.0mph /  14.5km/h 57% 0.00in /  0mm 821.0 W/m2
09:43 77.2 °F /  25.1 °C 59.7 °F /  15.4 °C 29.84in /  1010.4hPa NE 2.0mph /  3.2km/h 8.0mph /  12.9km/h 55% 0.00in /  0mm 717.0 W/m2
09:48 77.2 °F /  25.1 °C 59.2 °F /  15.1 °C 29.84in /  1010.4hPa NE 2.0mph /  3.2km/h 10.0mph /  16.1km/h 54% 0.00in /  0mm 450.0 W/m2
09:54 76.6 °F /  24.8 °C 59.2 °F /  15.1 °C 29.85in /  1010.7hPa ENE 6.0mph /  9.7km/h 10.0mph /  16.1km/h 55% 0.00in /  0mm 297.0 W/m2
09:59 75.9 °F /  24.4 °C 59.5 °F /  15.3 °C 29.85in /  1010.7hPa ENE 4.0mph /  6.4km/h 9.0mph /  14.5km/h 57% 0.00in /  0mm 371.0 W/m2
10:04 75.7 °F /  24.3 °C 59.4 °F /  15.2 °C 29.85in /  1010.7hPa NE 4.0mph /  6.4km/h 9.0mph /  14.5km/h 57% 0.00in /  0mm 290.0 W/m2
10:10 75.6 °F /  24.2 °C 59.2 °F /  15.1 °C 29.85in /  1010.7hPa ENE 6.9mph /  11.1km/h 10.0mph /  16.1km/h 57% 0.00in /  0mm 329.0 W/m2
10:15 75.4 °F /  24.1 °C 59.0 °F /  15 °C 29.85in /  1010.7hPa SSE 2.0mph /  3.2km/h 11.0mph /  17.7km/h 57% 0.00in /  0mm 714.0 W/m2
10:21 75.4 °F /  24.1 °C 59.5 °F /  15.3 °C 29.85in /  1010.7hPa ENE 10.1mph /  16.3km/h 12.0mph /  19.3km/h 58% 0.00in /  0mm 531.0 W/m2
10:26 75.7 °F /  24.3 °C 59.4 °F /  15.2 °C 29.85in /  1010.7hPa SE 2.0mph /  3.2km/h 12.0mph /  19.3km/h 57% 0.00in /  0mm 898.0 W/m2
10:31 76.1 °F /  24.5 °C 59.7 °F /  15.4 °C 29.85in /  1010.7hPa ESE 4.9mph /  7.9km/h 13.0mph /  20.9km/h 57% 0.00in /  0mm 942.0 W/m2
10:36 76.6 °F /  24.8 °C 60.3 °F /  15.7 °C 29.85in /  1010.7hPa SSW 4.9mph /  7.9km/h 11.0mph /  17.7km/h 57% 0.00in /  0mm 749.0 W/m2
10:42 77.2 °F /  25.1 °C 59.7 °F /  15.4 °C 29.85in /  1010.7hPa ENE 6.9mph /  11.1km/h 14.0mph /  22.5km/h 55% 0.00in /  0mm 812.0 W/m2
10:50 77.5 °F /  25.3 °C 60.6 °F /  15.9 °C 29.85in /  1010.7hPa ESE 12.1mph /  19.5km/h 12.1mph /  19.5km/h 56% 0.00in /  0mm 652.0 W/m2
10:56 77.5 °F /  25.3 °C 60.1 °F /  15.6 °C 29.85in /  1010.7hPa NE 4.0mph /  6.4km/h 8.0mph /  12.9km/h 55% 0.00in /  0mm 489.0 W/m2
11:01 77.4 °F /  25.2 °C 60.4 °F /  15.8 °C 29.85in /  1010.7hPa East 4.9mph /  7.9km/h 10.0mph /  16.1km/h 56% 0.00in /  0mm 589.0 W/m2
11:06 77.4 °F /  25.2 °C 61.0 °F /  16.1 °C 29.85in /  1010.7hPa NE 2.9mph /  4.7km/h 13.0mph /  20.9km/h 57% 0.00in /  0mm 559.0 W/m2
11:11 77.2 °F /  25.1 °C 61.3 °F /  16.3 °C 29.85in /  1010.7hPa ESE 2.0mph /  3.2km/h 8.0mph /  12.9km/h 58% 0.00in /  0mm 889.0 W/m2
11:16 77.4 °F /  25.2 °C 60.4 °F /  15.8 °C 29.85in /  1010.7hPa ESE 4.9mph /  7.9km/h 9.0mph /  14.5km/h 56% 0.00in /  0mm 1049.0 W/m2
11:22 77.7 °F /  25.4 °C 61.3 °F /  16.3 °C 29.85in /  1010.7hPa NNE 2.9mph /  4.7km/h 7.0mph /  11.3km/h 57% 0.00in /  0mm 1018.0 W/m2
11:28 78.1 °F /  25.6 °C 61.2 °F /  16.2 °C 29.84in /  1010.4hPa ENE 6.0mph /  9.7km/h 11.0mph /  17.7km/h 56% 0.00in /  0mm 954.0 W/m2
11:34 78.4 °F /  25.8 °C 61.0 °F /  16.1 °C 29.85in /  1010.7hPa ENE 2.9mph /  4.7km/h 12.0mph /  19.3km/h 55% 0.00in /  0mm 1037.0 W/m2
11:39 78.8 °F /  26 °C 60.8 °F /  16 °C 29.85in /  1010.7hPa NE 8.1mph /  13km/h 10.0mph /  16.1km/h 54% 0.00in /  0mm 986.0 W/m2
11:44 79.3 °F /  26.3 °C 61.2 °F /  16.2 °C 29.84in /  1010.4hPa East 8.1mph /  13km/h 10.0mph /  16.1km/h 54% 0.00in /  0mm 991.0 W/m2
11:49 79.9 °F /  26.6 °C 60.1 °F /  15.6 °C 29.84in /  1010.4hPa ENE 2.9mph /  4.7km/h 11.0mph /  17.7km/h 51% 0.00in /  0mm 997.0 W/m2
11:54 80.2 °F /  26.8 °C 60.4 °F /  15.8 °C 29.84in /  1010.4hPa ENE 4.0mph /  6.4km/h 9.0mph /  14.5km/h 51% 0.00in /  0mm 997.0 W/m2
11:59 80.4 °F /  26.9 °C 61.2 °F /  16.2 °C 29.84in /  1010.4hPa SE 2.0mph /  3.2km/h 7.0mph /  11.3km/h 52% 0.00in /  0mm 998.0 W/m2
12:04 81.0 °F /  27.2 °C 61.2 °F /  16.2 °C 29.84in /  1010.4hPa ENE 0.9mph /  1.4km/h 12.0mph /  19.3km/h 51% 0.00in /  0mm 1004.0 W/m2
12:10 81.5 °F /  27.5 °C 60.4 °F /  15.8 °C 29.83in /  1010hPa NE 6.0mph /  9.7km/h 8.0mph /  12.9km/h 49% 0.00in /  0mm 1018.0 W/m2
12:15 81.9 °F /  27.7 °C 60.3 °F /  15.7 °C 29.83in /  1010hPa NE 8.9mph /  14.3km/h 10.0mph /  16.1km/h 48% 0.00in /  0mm 1027.0 W/m2
12:20 81.9 °F /  27.7 °C 59.7 °F /  15.4 °C 29.83in /  1010hPa ESE 6.0mph /  9.7km/h 9.0mph /  14.5km/h 47% 0.00in /  0mm 1032.0 W/m2
12:26 82.0 °F /  27.8 °C 61.0 °F /  16.1 °C 29.83in /  1010hPa NE 2.0mph /  3.2km/h 10.0mph /  16.1km/h 49% 0.00in /  0mm 1049.0 W/m2
12:31 82.2 °F /  27.9 °C 58.1 °F /  14.5 °C 29.83in /  1010hPa ESE 0.9mph /  1.4km/h 7.0mph /  11.3km/h 44% 0.00in /  0mm 1093.0 W/m2
12:36 82.8 °F /  28.2 °C 59.2 °F /  15.1 °C 29.83in /  1010hPa Calm   7.0mph /  11.3km/h 45% 0.00in /  0mm 1065.0 W/m2
12:42 83.3 °F /  28.5 °C 59.2 °F /  15.1 °C 29.83in /  1010hPa Calm   9.0mph /  14.5km/h 44% 0.00in /  0mm 1137.0 W/m2
12:47 83.7 °F /  28.7 °C 59.4 °F /  15.2 °C 29.83in /  1010hPa East 4.9mph /  7.9km/h 9.0mph /  14.5km/h 44% 0.00in /  0mm 1188.0 W/m2
12:52 83.8 °F /  28.8 °C 60.3 °F /  15.7 °C 29.83in /  1010hPa SE 2.9mph /  4.7km/h 10.0mph /  16.1km/h 45% 0.00in /  0mm 1248.0 W/m2
12:57 84.0 °F /  28.9 °C 59.2 °F /  15.1 °C 29.83in /  1010hPa NE 2.9mph /  4.7km/h 7.0mph /  11.3km/h 43% 0.00in /  0mm 1076.0 W/m2
13:02 84.2 °F /  29 °C 58.6 °F /  14.8 °C 29.82in /  1009.7hPa SSE 2.9mph /  4.7km/h 7.0mph /  11.3km/h 42% 0.00in /  0mm 278.0 W/m2
13:07 83.7 °F /  28.7 °C 58.1 °F /  14.5 °C 29.82in /  1009.7hPa ESE 0.9mph /  1.4km/h 2.0mph /  3.2km/h 42% 0.00in /  0mm 1176.0 W/m2
13:12 83.7 °F /  28.7 °C 58.1 °F /  14.5 °C 29.82in /  1009.7hPa ESE 2.9mph /  4.7km/h 9.0mph /  14.5km/h 42% 0.00in /  0mm 1260.0 W/m2
13:17 83.7 °F /  28.7 °C 58.1 °F /  14.5 °C 29.82in /  1009.7hPa North 2.9mph /  4.7km/h 7.0mph /  11.3km/h 42% 0.00in /  0mm 330.0 W/m2
13:22 83.7 °F /  28.7 °C 58.1 °F /  14.5 °C 29.82in /  1009.7hPa NE 8.1mph /  13km/h 11.0mph /  17.7km/h 42% 0.00in /  0mm 1269.0 W/m2
13:27 84.0 °F /  28.9 °C 57.0 °F /  13.9 °C 29.81in /  1009.4hPa East 4.9mph /  7.9km/h 11.0mph /  17.7km/h 40% 0.00in /  0mm 1206.0 W/m2
13:33 84.7 °F /  29.3 °C 57.0 °F /  13.9 °C 29.80in /  1009hPa SE 6.0mph /  9.7km/h 10.0mph /  16.1km/h 39% 0.00in /  0mm 1204.0 W/m2
13:38 84.9 °F /  29.4 °C 57.2 °F /  14 °C 29.80in /  1009hPa NE 2.0mph /  3.2km/h 10.0mph /  16.1km/h 39% 0.00in /  0mm 165.0 W/m2
13:43 84.6 °F /  29.2 °C 57.6 °F /  14.2 °C 29.81in /  1009.4hPa NE 2.9mph /  4.7km/h 9.0mph /  14.5km/h 40% 0.00in /  0mm 163.0 W/m2
13:48 83.7 °F /  28.7 °C 56.8 °F /  13.8 °C 29.81in /  1009.4hPa Calm   7.0mph /  11.3km/h 40% 0.00in /  0mm 146.0 W/m2
13:53 83.1 °F /  28.4 °C 57.0 °F /  13.9 °C 29.81in /  1009.4hPa North 6.9mph /  11.1km/h 7.0mph /  11.3km/h 41% 0.00in /  0mm 132.0 W/m2
13:58 82.2 °F /  27.9 °C 58.8 °F /  14.9 °C 29.82in /  1009.7hPa Calm   4.0mph /  6.4km/h 45% 0.00in /  0mm 134.0 W/m2
14:03 81.3 °F /  27.4 °C 58.6 °F /  14.8 °C 29.81in /  1009.4hPa NNW 8.9mph /  14.3km/h 11.0mph /  17.7km/h 46% 0.00in /  0mm 174.0 W/m2
14:08 80.4 °F /  26.9 °C 58.3 °F /  14.6 °C 29.81in /  1009.4hPa Calm   7.0mph /  11.3km/h 47% 0.00in /  0mm 292.0 W/m2
14:13 79.9 °F /  26.6 °C 58.5 °F /  14.7 °C 29.81in /  1009.4hPa NW 0.9mph /  1.4km/h 9.0mph /  14.5km/h 48% 0.00in /  0mm 234.0 W/m2
14:18 79.3 °F /  26.3 °C 59.0 °F /  15 °C 29.82in /  1009.7hPa NNW 6.9mph /  11.1km/h 13.0mph /  20.9km/h 50% 0.00in /  0mm 223.0 W/m2
14:23 78.4 °F /  25.8 °C 60.4 °F /  15.8 °C 29.82in /  1009.7hPa NE 10.1mph /  16.3km/h 12.0mph /  19.3km/h 54% 0.00in /  0mm 684.0 W/m2
14:29 77.7 °F /  25.4 °C 60.8 °F /  16 °C 29.82in /  1009.7hPa North 8.1mph /  13km/h 10.0mph /  16.1km/h 56% 0.00in /  0mm 698.0 W/m2
14:34 77.2 °F /  25.1 °C 60.3 °F /  15.7 °C 29.82in /  1009.7hPa North 6.0mph /  9.7km/h 10.0mph /  16.1km/h 56% 0.00in /  0mm 459.0 W/m2
14:40 76.6 °F /  24.8 °C 59.7 °F /  15.4 °C 29.81in /  1009.4hPa North 6.9mph /  11.1km/h 16.0mph /  25.7km/h 56% 0.00in /  0mm 707.0 W/m2
14:45 75.9 °F /  24.4 °C 61.0 °F /  16.1 °C 29.82in /  1009.7hPa NE 6.0mph /  9.7km/h 17.0mph /  27.4km/h 60% 0.00in /  0mm 580.0 W/m2
14:50 74.8 °F /  23.8 °C 59.5 °F /  15.3 °C 29.82in /  1009.7hPa NNW 4.0mph /  6.4km/h 12.0mph /  19.3km/h 59% 0.00in /  0mm 438.0 W/m2
14:55 74.5 °F /  23.6 °C 59.2 °F /  15.1 °C 29.82in /  1009.7hPa NNW 6.0mph /  9.7km/h 9.0mph /  14.5km/h 59% 0.00in /  0mm 666.0 W/m2
15:00 74.7 °F /  23.7 °C 59.4 °F /  15.2 °C 29.82in /  1009.7hPa NNW 2.0mph /  3.2km/h 6.0mph /  9.7km/h 59% 0.00in /  0mm 631.0 W/m2
15:05 75.4 °F /  24.1 °C 60.1 °F /  15.6 °C 29.81in /  1009.4hPa North 2.0mph /  3.2km/h 7.0mph /  11.3km/h 59% 0.00in /  0mm 513.0 W/m2
15:10 75.7 °F /  24.3 °C 59.9 °F /  15.5 °C 29.81in /  1009.4hPa North 0.9mph /  1.4km/h 9.0mph /  14.5km/h 58% 0.00in /  0mm 369.0 W/m2
15:16 76.1 °F /  24.5 °C 59.7 °F /  15.4 °C 29.80in /  1009hPa North 4.0mph /  6.4km/h 9.0mph /  14.5km/h 57% 0.00in /  0mm 309.0 W/m2
15:21 76.3 °F /  24.6 °C 60.4 °F /  15.8 °C 29.81in /  1009.4hPa Calm   4.0mph /  6.4km/h 58% 0.00in /  0mm 260.0 W/m2
15:26 76.5 °F /  24.7 °C 60.6 °F /  15.9 °C 29.81in /  1009.4hPa WSW 2.0mph /  3.2km/h 3.0mph /  4.8km/h 58% 0.00in /  0mm 274.0 W/m2
15:31 76.1 °F /  24.5 °C 60.3 °F /  15.7 °C 29.81in /  1009.4hPa WSW 0.9mph /  1.4km/h 1.0mph /  1.6km/h 58% 0.00in /  0mm 302.0 W/m2
15:36 75.7 °F /  24.3 °C 59.9 °F /  15.5 °C 29.81in /  1009.4hPa Calm   1.0mph /  1.6km/h 58% 0.00in /  0mm 503.0 W/m2
15:41 75.9 °F /  24.4 °C 60.1 °F /  15.6 °C 29.81in /  1009.4hPa Calm   1.0mph /  1.6km/h 58% 0.00in /  0mm 475.0 W/m2
15:46 76.3 °F /  24.6 °C 59.0 °F /  15 °C 29.81in /  1009.4hPa West 0.9mph /  1.4km/h 5.0mph /  8km/h 55% 0.00in /  0mm 227.0 W/m2
15:51 76.5 °F /  24.7 °C 58.1 °F /  14.5 °C 29.81in /  1009.4hPa NNW 2.9mph /  4.7km/h 3.0mph /  4.8km/h 53% 0.00in /  0mm 181.0 W/m2
15:56 76.6 °F /  24.8 °C 57.7 °F /  14.3 °C 29.80in /  1009hPa Calm   1.0mph /  1.6km/h 52% 0.00in /  0mm 181.0 W/m2
16:01 76.6 °F /  24.8 °C 58.3 °F /  14.6 °C 29.80in /  1009hPa ESE 0.9mph /  1.4km/h 1.0mph /  1.6km/h 53% 0.00in /  0mm 174.0 W/m2
16:06 76.6 °F /  24.8 °C 58.3 °F /  14.6 °C 29.80in /  1009hPa Calm   2.0mph /  3.2km/h 53% 0.00in /  0mm 167.0 W/m2
16:11 76.8 °F /  24.9 °C 59.0 °F /  15 °C 29.80in /  1009hPa Calm   6.0mph /  9.7km/h 54% 0.00in /  0mm 167.0 W/m2
16:16 76.8 °F /  24.9 °C 59.0 °F /  15 °C 29.81in /  1009.4hPa Calm   1.0mph /  1.6km/h 54% 0.00in /  0mm 158.0 W/m2
16:21 76.8 °F /  24.9 °C 58.5 °F /  14.7 °C 29.81in /  1009.4hPa Calm     53% 0.00in /  0mm 158.0 W/m2
16:27 76.8 °F /  24.9 °C 58.5 °F /  14.7 °C 29.81in /  1009.4hPa Calm   1.0mph /  1.6km/h 53% 0.00in /  0mm 153.0 W/m2
16:33 77.0 °F /  25 °C 58.6 °F /  14.8 °C 29.81in /  1009.4hPa Calm   1.0mph /  1.6km/h 53% 0.00in /  0mm 163.0 W/m2
16:38 76.8 °F /  24.9 °C 57.4 °F /  14.1 °C 29.81in /  1009.4hPa SW 0.9mph /  1.4km/h 2.0mph /  3.2km/h 51% 0.00in /  0mm 149.0 W/m2
16:43 76.8 °F /  24.9 °C 57.4 °F /  14.1 °C 29.81in /  1009.4hPa Calm     51% 0.00in /  0mm 130.0 W/m2
16:48 76.6 °F /  24.8 °C 57.7 °F /  14.3 °C 29.81in /  1009.4hPa Calm   1.0mph /  1.6km/h 52% 0.00in /  0mm 139.0 W/m2
16:53 76.6 °F /  24.8 °C 58.3 °F /  14.6 °C 29.81in /  1009.4hPa Calm   2.0mph /  3.2km/h 53% 0.00in /  0mm 128.0 W/m2
16:58 76.6 °F /  24.8 °C 57.2 °F /  14 °C 29.81in /  1009.4hPa Calm   1.0mph /  1.6km/h 51% 0.00in /  0mm 121.0 W/m2
17:03 76.6 °F /  24.8 °C 57.7 °F /  14.3 °C 29.81in /  1009.4hPa SE 0.9mph /  1.4km/h 2.0mph /  3.2km/h 52% 0.00in /  0mm 113.0 W/m2
17:08 76.8 °F /  24.9 °C 57.9 °F /  14.4 °C 29.81in /  1009.4hPa Calm   1.0mph /  1.6km/h 52% 0.00in /  0mm 132.0 W/m2
17:14 76.8 °F /  24.9 °C 59.0 °F /  15 °C 29.81in /  1009.4hPa SW 2.9mph /  4.7km/h 6.0mph /  9.7km/h 54% 0.00in /  0mm 135.0 W/m2
17:19 76.5 °F /  24.7 °C 59.5 °F /  15.3 °C 29.81in /  1009.4hPa SW 0.9mph /  1.4km/h 4.0mph /  6.4km/h 56% 0.00in /  0mm 127.0 W/m2
17:24 75.9 °F /  24.4 °C 59.2 °F /  15.1 °C 29.80in /  1009hPa SSW 0.9mph /  1.4km/h 4.0mph /  6.4km/h 56% 0.00in /  0mm 114.0 W/m2
17:29 75.7 °F /  24.3 °C 59.0 °F /  15 °C 29.80in /  1009hPa SSW 0.9mph /  1.4km/h 2.0mph /  3.2km/h 56% 0.00in /  0mm 107.0 W/m2
17:34 75.7 °F /  24.3 °C 59.0 °F /  15 °C 29.80in /  1009hPa Calm   3.0mph /  4.8km/h 56% 0.00in /  0mm 102.0 W/m2
17:39 75.6 °F /  24.2 °C 58.3 °F /  14.6 °C 29.80in /  1009hPa South 4.9mph /  7.9km/h 6.0mph /  9.7km/h 55% 0.00in /  0mm 97.0 W/m2
17:44 75.6 °F /  24.2 °C 57.7 °F /  14.3 °C 29.80in /  1009hPa Calm   5.0mph /  8km/h 54% 0.00in /  0mm 93.0 W/m2
17:49 75.6 °F /  24.2 °C 57.2 °F /  14 °C 29.80in /  1009hPa SSW 2.0mph /  3.2km/h 4.0mph /  6.4km/h 53% 0.00in /  0mm 91.0 W/m2
17:54 75.6 °F /  24.2 °C 57.7 °F /  14.3 °C 29.80in /  1009hPa Calm   1.0mph /  1.6km/h 54% 0.00in /  0mm 91.0 W/m2
17:59 75.7 °F /  24.3 °C 59.9 °F /  15.5 °C 29.80in /  1009hPa SW 2.0mph /  3.2km/h 6.0mph /  9.7km/h 58% 0.00in /  0mm 90.0 W/m2
18:05 75.6 °F /  24.2 °C 59.7 °F /  15.4 °C 29.80in /  1009hPa South 2.9mph /  4.7km/h 6.0mph /  9.7km/h 58% 0.00in /  0mm 88.0 W/m2
18:10 75.4 °F /  24.1 °C 60.1 °F /  15.6 °C 29.80in /  1009hPa South 2.0mph /  3.2km/h 8.0mph /  12.9km/h 59% 0.00in /  0mm 88.0 W/m2
18:15 75.0 °F /  23.9 °C 59.7 °F /  15.4 °C 29.80in /  1009hPa Calm   11.0mph /  17.7km/h 59% 0.00in /  0mm 86.0 W/m2
18:20 74.7 °F /  23.7 °C 59.4 °F /  15.2 °C 29.80in /  1009hPa WSW 0.9mph /  1.4km/h 4.0mph /  6.4km/h 59% 0.00in /  0mm 84.0 W/m2
18:25 74.5 °F /  23.6 °C 59.2 °F /  15.1 °C 29.80in /  1009hPa SSW 0.9mph /  1.4km/h 3.0mph /  4.8km/h 59% 0.00in /  0mm 79.0 W/m2
18:30 74.5 °F /  23.6 °C 59.2 °F /  15.1 °C 29.80in /  1009hPa South 2.9mph /  4.7km/h 3.0mph /  4.8km/h 59% 0.00in /  0mm 74.0 W/m2
18:35 74.5 °F /  23.6 °C 58.8 °F /  14.9 °C 29.80in /  1009hPa Calm   3.0mph /  4.8km/h 58% 0.00in /  0mm 67.0 W/m2
18:40 74.5 °F /  23.6 °C 58.8 °F /  14.9 °C 29.80in /  1009hPa Calm   2.0mph /  3.2km/h 58% 0.00in /  0mm 62.0 W/m2
18:45 74.5 °F /  23.6 °C 58.8 °F /  14.9 °C 29.80in /  1009hPa South 4.9mph /  7.9km/h 5.0mph /  8km/h 58% 0.00in /  0mm 58.0 W/m2
18:51 74.5 °F /  23.6 °C 58.8 °F /  14.9 °C 29.80in /  1009hPa Calm   1.0mph /  1.6km/h 58% 0.00in /  0mm 53.0 W/m2
18:56 74.5 °F /  23.6 °C 58.8 °F /  14.9 °C 29.80in /  1009hPa Calm   2.0mph /  3.2km/h 58% 0.00in /  0mm 53.0 W/m2
19:01 74.5 °F /  23.6 °C 58.3 °F /  14.6 °C 29.80in /  1009hPa Calm   5.0mph /  8km/h 57% 0.00in /  0mm 74.0 W/m2
19:06 74.8 °F /  23.8 °C 58.6 °F /  14.8 °C 29.80in /  1009hPa Calm   3.0mph /  4.8km/h 57% 0.00in /  0mm 58.0 W/m2
19:11 75.4 °F /  24.1 °C 59.0 °F /  15 °C 29.81in /  1009.4hPa SE 2.0mph /  3.2km/h 4.0mph /  6.4km/h 57% 0.00in /  0mm 46.0 W/m2
19:16 75.6 °F /  24.2 °C 58.8 °F /  14.9 °C 29.81in /  1009.4hPa Calm   3.0mph /  4.8km/h 56% 0.00in /  0mm 26.0 W/m2
19:21 75.6 °F /  24.2 °C 58.8 °F /  14.9 °C 29.81in /  1009.4hPa SSE 4.0mph /  6.4km/h 4.0mph /  6.4km/h 56% 0.00in /  0mm 16.0 W/m2
19:26 75.4 °F /  24.1 °C 58.6 °F /  14.8 °C 29.80in /  1009hPa SE 2.0mph /  3.2km/h 6.0mph /  9.7km/h 56% 0.00in /  0mm 11.0 W/m2
19:32 75.2 °F /  24 °C 59.0 °F /  15 °C 29.80in /  1009hPa SE 0.9mph /  1.4km/h 3.0mph /  4.8km/h 57% 0.00in /  0mm 5.0 W/m2
19:37 75.0 °F /  23.9 °C 59.2 °F /  15.1 °C 29.80in /  1009hPa Calm   1.0mph /  1.6km/h 58% 0.00in /  0mm 0.0 W/m2
19:42 75.0 °F /  23.9 °C 59.2 °F /  15.1 °C 29.80in /  1009hPa Calm   1.0mph /  1.6km/h 58% 0.00in /  0mm 0.0 W/m2
19:48 74.8 °F /  23.8 °C 59.5 °F /  15.3 °C 29.80in /  1009hPa Calm   2.0mph /  3.2km/h 59% 0.00in /  0mm 0.0 W/m2
19:53 74.7 °F /  23.7 °C 59.9 °F /  15.5 °C 29.80in /  1009hPa Calm   1.0mph /  1.6km/h 60% 0.00in /  0mm 0.0 W/m2
19:58 74.7 °F /  23.7 °C 59.4 °F /  15.2 °C 29.80in /  1009hPa Calm     59% 0.00in /  0mm 0.0 W/m2
20:03 74.5 °F /  23.6 °C 59.7 °F /  15.4 °C 29.80in /  1009hPa ESE 0.9mph /  1.4km/h 1.0mph /  1.6km/h 60% 0.00in /  0mm 0.0 W/m2
20:08 74.5 °F /  23.6 °C 60.1 °F /  15.6 °C 29.80in /  1009hPa Calm   1.0mph /  1.6km/h 61% 0.00in /  0mm 0.0 W/m2
20:13 74.1 °F /  23.4 °C 59.7 °F /  15.4 °C 29.80in /  1009hPa Calm     61% 0.00in /  0mm 0.0 W/m2
20:19 73.9 °F /  23.3 °C 60.1 °F /  15.6 °C 29.81in /  1009.4hPa Calm   2.0mph /  3.2km/h 62% 0.00in /  0mm 0.0 W/m2
20:24 73.8 °F /  23.2 °C 60.8 °F /  16 °C 29.81in /  1009.4hPa Calm   2.0mph /  3.2km/h 64% 0.00in /  0mm 0.0 W/m2
20:29 73.4 °F /  23 °C 61.0 °F /  16.1 °C 29.80in /  1009hPa Calm     65% 0.00in /  0mm 0.0 W/m2
20:34 73.0 °F /  22.8 °C 60.6 °F /  15.9 °C 29.80in /  1009hPa Calm     65% 0.00in /  0mm 0.0 W/m2
20:39 72.9 °F /  22.7 °C 60.8 °F /  16 °C 29.80in /  1009hPa Calm     66% 0.00in /  0mm 0.0 W/m2
20:44 72.7 °F /  22.6 °C 61.2 °F /  16.2 °C 29.80in /  1009hPa Calm   1.0mph /  1.6km/h 67% 0.00in /  0mm 0.0 W/m2
20:49 72.3 °F /  22.4 °C 61.2 °F /  16.2 °C 29.80in /  1009hPa Calm   1.0mph /  1.6km/h 68% 0.00in /  0mm 0.0 W/m2
20:54 72.0 °F /  22.2 °C 60.8 °F /  16 °C 29.80in /  1009hPa Calm   5.0mph /  8km/h 68% 0.00in /  0mm 0.0 W/m2
21:00 71.6 °F /  22 °C 60.1 °F /  15.6 °C 29.81in /  1009.4hPa SE 4.0mph /  6.4km/h 4.0mph /  6.4km/h 67% 0.00in /  0mm 0.0 W/m2
21:05 71.2 °F /  21.8 °C 59.7 °F /  15.4 °C 29.81in /  1009.4hPa ENE 0.9mph /  1.4km/h 7.0mph /  11.3km/h 67% 0.00in /  0mm 0.0 W/m2
21:10 71.1 °F /  21.7 °C 59.5 °F /  15.3 °C 29.81in /  1009.4hPa Calm   6.0mph /  9.7km/h 67% 0.00in /  0mm 0.0 W/m2
21:15 70.9 °F /  21.6 °C 59.4 °F /  15.2 °C 29.81in /  1009.4hPa NE 2.0mph /  3.2km/h 7.0mph /  11.3km/h 67% 0.00in /  0mm 0.0 W/m2
21:20 70.7 °F /  21.5 °C 59.5 °F /  15.3 °C 29.81in /  1009.4hPa NE 4.9mph /  7.9km/h 5.0mph /  8km/h 68% 0.00in /  0mm 0.0 W/m2
21:25 70.5 °F /  21.4 °C 59.9 °F /  15.5 °C 29.82in /  1009.7hPa NNE 6.0mph /  9.7km/h 8.0mph /  12.9km/h 69% 0.00in /  0mm 0.0 W/m2
21:30 70.2 °F /  21.2 °C 59.5 °F /  15.3 °C 29.82in /  1009.7hPa ENE 0.9mph /  1.4km/h 6.0mph /  9.7km/h 69% 0.00in /  0mm 0.0 W/m2
21:36 70.0 °F /  21.1 °C 59.4 °F /  15.2 °C 29.81in /  1009.4hPa East 2.9mph /  4.7km/h 5.0mph /  8km/h 69% 0.00in /  0mm 0.0 W/m2
21:41 69.8 °F /  21 °C 59.2 °F /  15.1 °C 29.81in /  1009.4hPa North 2.9mph /  4.7km/h 8.0mph /  12.9km/h 69% 0.00in /  0mm 0.0 W/m2
21:46 69.6 °F /  20.9 °C 59.0 °F /  15 °C 29.82in /  1009.7hPa Calm   4.0mph /  6.4km/h 69% 0.00in /  0mm 0.0 W/m2
21:51 69.4 °F /  20.8 °C 59.2 °F /  15.1 °C 29.82in /  1009.7hPa Calm   1.0mph /  1.6km/h 70% 0.00in /  0mm 0.0 W/m2
21:56 69.3 °F /  20.7 °C 59.0 °F /  15 °C 29.83in /  1010hPa Calm   2.0mph /  3.2km/h 70% 0.00in /  0mm 0.0 W/m2
22:01 69.1 °F /  20.6 °C 59.4 °F /  15.2 °C 29.83in /  1010hPa Calm     71% 0.00in /  0mm 0.0 W/m2
22:06 69.1 °F /  20.6 °C 59.4 °F /  15.2 °C 29.83in /  1010hPa Calm   1.0mph /  1.6km/h 71% 0.00in /  0mm 0.0 W/m2
22:11 68.7 °F /  20.4 °C 59.0 °F /  15 °C 29.83in /  1010hPa Calm   4.0mph /  6.4km/h 71% 0.00in /  0mm 0.0 W/m2
22:16 68.5 °F /  20.3 °C 59.2 °F /  15.1 °C 29.83in /  1010hPa Calm   1.0mph /  1.6km/h 72% 0.00in /  0mm 0.0 W/m2
22:22 68.5 °F /  20.3 °C 59.2 °F /  15.1 °C 29.83in /  1010hPa Calm   1.0mph /  1.6km/h 72% 0.00in /  0mm 0.0 W/m2
22:27 68.4 °F /  20.2 °C 59.4 °F /  15.2 °C 29.84in /  1010.4hPa Calm   2.0mph /  3.2km/h 73% 0.00in /  0mm 0.0 W/m2
22:33 68.2 °F /  20.1 °C 59.2 °F /  15.1 °C 29.83in /  1010hPa Calm   3.0mph /  4.8km/h 73% 0.00in /  0mm 0.0 W/m2
22:38 67.8 °F /  19.9 °C 58.8 °F /  14.9 °C 29.84in /  1010.4hPa East 2.0mph /  3.2km/h 2.0mph /  3.2km/h 73% 0.00in /  0mm 0.0 W/m2
22:43 67.6 °F /  19.8 °C 59.0 °F /  15 °C 29.84in /  1010.4hPa Calm   2.0mph /  3.2km/h 74% 0.00in /  0mm 0.0 W/m2
22:48 67.6 °F /  19.8 °C 59.0 °F /  15 °C 29.84in /  1010.4hPa Calm   1.0mph /  1.6km/h 74% 0.00in /  0mm 0.0 W/m2
22:53 67.5 °F /  19.7 °C 59.2 °F /  15.1 °C 29.84in /  1010.4hPa Calm     75% 0.00in /  0mm 0.0 W/m2
22:58 67.5 °F /  19.7 °C 59.5 °F /  15.3 °C 29.84in /  1010.4hPa Calm     76% 0.00in /  0mm 0.0 W/m2
23:04 67.3 °F /  19.6 °C 59.5 °F /  15.3 °C 29.84in /  1010.4hPa Calm     76% 0.00in /  0mm 0.0 W/m2
23:10 66.9 °F /  19.4 °C 59.2 °F /  15.1 °C 29.84in /  1010.4hPa Calm     76% 0.00in /  0mm 0.0 W/m2
23:15 66.7 °F /  19.3 °C 59.0 °F /  15 °C 29.84in /  1010.4hPa Calm   1.0mph /  1.6km/h 76% 0.00in /  0mm 0.0 W/m2
23:20 66.7 °F /  19.3 °C 59.4 °F /  15.2 °C 29.84in /  1010.4hPa SSE 2.0mph /  3.2km/h 3.0mph /  4.8km/h 77% 0.00in /  0mm 0.0 W/m2
23:25 66.6 °F /  19.2 °C 59.2 °F /  15.1 °C 29.85in /  1010.7hPa SSE 0.9mph /  1.4km/h 1.0mph /  1.6km/h 77% 0.00in /  0mm 0.0 W/m2
23:30 66.4 °F /  19.1 °C 59.4 °F /  15.2 °C 29.85in /  1010.7hPa Calm     78% 0.00in /  0mm 0.0 W/m2
23:35 66.4 °F /  19.1 °C 59.4 °F /  15.2 °C 29.85in /  1010.7hPa SSE 0.9mph /  1.4km/h 2.0mph /  3.2km/h 78% 0.00in /  0mm 0.0 W/m2
23:40 66.2 °F /  19 °C 59.2 °F /  15.1 °C 29.85in /  1010.7hPa Calm   1.0mph /  1.6km/h 78% 0.00in /  0mm 0.0 W/m2
23:45 66.0 °F /  18.9 °C 59.0 °F /  15 °C 29.85in /  1010.7hPa Calm     78% 0.00in /  0mm 0.0 W/m2
23:51 66.0 °F /  18.9 °C 59.0 °F /  15 °C 29.84in /  1010.4hPa Calm   1.0mph /  1.6km/h 78% 0.00in /  0mm 0.0 W/m2
23:56 65.8 °F /  18.8 °C 58.8 °F /  14.9 °C 29.84in /  1010.4hPa Calm     78% 0.00in /  0mm 0.0 W/m2
Olympia, Windhoek, Namibia
Compliments of Weather Underground - 3.25 mb